sensor_id;sensor_type;location;lat;lon;timestamp;P1;P2;P0
46839;PMS5003;70678;50.710;5.026;2023-08-17T00:01:06;5;5;
46839;PMS5003;70678;50.710;5.026;2023-08-17T00:03:34;5;5;
46839;PMS5003;70678;50.710;5.026;2023-08-17T00:06:04;5;5;
46839;PMS5003;70678;50.710;5.026;2023-08-17T00:08:31;6;6;
46839;PMS5003;70678;50.710;5.026;2023-08-17T00:11:01;6;6;
46839;PMS5003;70678;50.710;5.026;2023-08-17T00:13:29;3;3;
46839;PMS5003;70678;50.710;5.026;2023-08-17T00:15:57;6;6;
46839;PMS5003;70678;50.710;5.026;2023-08-17T00:18:25;5;5;
46839;PMS5003;70678;50.710;5.026;2023-08-17T00:20:55;6;6;
46839;PMS5003;70678;50.710;5.026;2023-08-17T00:23:23;6;6;
46839;PMS5003;70678;50.710;5.026;2023-08-17T00:25:54;3;3;
46839;PMS5003;70678;50.710;5.026;2023-08-17T00:28:21;5;5;
46839;PMS5003;70678;50.710;5.026;2023-08-17T00:30:51;4;4;
46839;PMS5003;70678;50.710;5.026;2023-08-17T00:33:19;6;6;
46839;PMS5003;70678;50.710;5.026;2023-08-17T00:35:47;5;5;
46839;PMS5003;70678;50.710;5.026;2023-08-17T00:38:15;6;6;
46839;PMS5003;70678;50.710;5.026;2023-08-17T00:40:44;4;4;
46839;PMS5003;70678;50.710;5.026;2023-08-17T00:43:15;4;4;
46839;PMS5003;70678;50.710;5.026;2023-08-17T00:45:43;4;4;
46839;PMS5003;70678;50.710;5.026;2023-08-17T00:48:13;3;3;
46839;PMS5003;70678;50.710;5.026;2023-08-17T00:50:41;5;5;
46839;PMS5003;70678;50.710;5.026;2023-08-17T00:53:11;6;6;
46839;PMS5003;70678;50.710;5.026;2023-08-17T00:55:39;5;5;
46839;PMS5003;70678;50.710;5.026;2023-08-17T00:58:07;2;2;
46839;PMS5003;70678;50.710;5.026;2023-08-17T01:00:37;4;4;
46839;PMS5003;70678;50.710;5.026;2023-08-17T01:03:04;6;6;
46839;PMS5003;70678;50.710;5.026;2023-08-17T01:05:32;5;5;
46839;PMS5003;70678;50.710;5.026;2023-08-17T01:08:00;3;3;
46839;PMS5003;70678;50.710;5.026;2023-08-17T01:10:28;4;4;
46839;PMS5003;70678;50.710;5.026;2023-08-17T01:13:03;6;6;
46839;PMS5003;70678;50.710;5.026;2023-08-17T01:15:35;5;5;
46839;PMS5003;70678;50.710;5.026;2023-08-17T01:18:07;6;6;
46839;PMS5003;70678;50.710;5.026;2023-08-17T01:20:43;5;5;
46839;PMS5003;70678;50.710;5.026;2023-08-17T01:23:11;1;1;
46839;PMS5003;70678;50.710;5.026;2023-08-17T01:25:39;3;3;
46839;PMS5003;70678;50.710;5.026;2023-08-17T01:28:06;6;6;
46839;PMS5003;70678;50.710;5.026;2023-08-17T01:30:38;4;4;
46839;PMS5003;70678;50.710;5.026;2023-08-17T01:33:10;5;5;
46839;PMS5003;70678;50.710;5.026;2023-08-17T01:35:44;1;1;
46839;PMS5003;70678;50.710;5.026;2023-08-17T01:38:16;7;7;
46839;PMS5003;70678;50.710;5.026;2023-08-17T01:40:48;6;6;
46839;PMS5003;70678;50.710;5.026;2023-08-17T01:43:17;6;6;
46839;PMS5003;70678;50.710;5.026;2023-08-17T01:45:48;3;3;
46839;PMS5003;70678;50.710;5.026;2023-08-17T01:48:16;5;5;
46839;PMS5003;70678;50.710;5.026;2023-08-17T01:50:43;5;5;
46839;PMS5003;70678;50.710;5.026;2023-08-17T01:53:13;7;7;
46839;PMS5003;70678;50.710;5.026;2023-08-17T01:55:41;5;5;
46839;PMS5003;70678;50.710;5.026;2023-08-17T01:58:11;5;5;
46839;PMS5003;70678;50.710;5.026;2023-08-17T02:00:38;3;3;
46839;PMS5003;70678;50.710;5.026;2023-08-17T02:03:06;5;5;
46839;PMS5003;70678;50.710;5.026;2023-08-17T02:05:36;9;9;
46839;PMS5003;70678;50.710;5.026;2023-08-17T02:08:03;2;2;
46839;PMS5003;70678;50.710;5.026;2023-08-17T02:10:31;5;5;
46839;PMS5003;70678;50.710;5.026;2023-08-17T02:13:00;4;4;
46839;PMS5003;70678;50.710;5.026;2023-08-17T02:15:29;5;5;
46839;PMS5003;70678;50.710;5.026;2023-08-17T02:17:59;5;5;
46839;PMS5003;70678;50.710;5.026;2023-08-17T02:20:29;3;3;
46839;PMS5003;70678;50.710;5.026;2023-08-17T02:22:57;5;5;
46839;PMS5003;70678;50.710;5.026;2023-08-17T02:25:25;4;4;
46839;PMS5003;70678;50.710;5.026;2023-08-17T02:27:54;7;7;
46839;PMS5003;70678;50.710;5.026;2023-08-17T02:30:22;3;3;
46839;PMS5003;70678;50.710;5.026;2023-08-17T02:32:50;3;3;
46839;PMS5003;70678;50.710;5.026;2023-08-17T02:35:19;4;4;
46839;PMS5003;70678;50.710;5.026;2023-08-17T02:37:47;5;5;
46839;PMS5003;70678;50.710;5.026;2023-08-17T02:40:14;5;5;
46839;PMS5003;70678;50.710;5.026;2023-08-17T02:42:43;3;3;
46839;PMS5003;70678;50.710;5.026;2023-08-17T02:45:11;3;3;
46839;PMS5003;70678;50.710;5.026;2023-08-17T02:47:40;5;5;
46839;PMS5003;70678;50.710;5.026;2023-08-17T02:50:08;4;4;
46839;PMS5003;70678;50.710;5.026;2023-08-17T02:52:36;3;3;
46839;PMS5003;70678;50.710;5.026;2023-08-17T02:55:04;3;3;
46839;PMS5003;70678;50.710;5.026;2023-08-17T02:57:33;5;5;
46839;PMS5003;70678;50.710;5.026;2023-08-17T03:00:03;2;2;
46839;PMS5003;70678;50.710;5.026;2023-08-17T03:02:32;4;4;
46839;PMS5003;70678;50.710;5.026;2023-08-17T03:05:01;3;3;
46839;PMS5003;70678;50.710;5.026;2023-08-17T03:07:29;5;5;
46839;PMS5003;70678;50.710;5.026;2023-08-17T03:09:57;5;5;
46839;PMS5003;70678;50.710;5.026;2023-08-17T03:12:27;4;4;
46839;PMS5003;70678;50.710;5.026;2023-08-17T03:14:55;4;4;
46839;PMS5003;70678;50.710;5.026;2023-08-17T03:17:22;3;3;
46839;PMS5003;70678;50.710;5.026;2023-08-17T03:19:52;6;6;
46839;PMS5003;70678;50.710;5.026;2023-08-17T03:22:20;4;4;
46839;PMS5003;70678;50.710;5.026;2023-08-17T03:24:48;4;4;
46839;PMS5003;70678;50.710;5.026;2023-08-17T03:27:15;5;5;
46839;PMS5003;70678;50.710;5.026;2023-08-17T03:29:44;4;4;
46839;PMS5003;70678;50.710;5.026;2023-08-17T03:32:11;4;4;
46839;PMS5003;70678;50.710;5.026;2023-08-17T03:34:39;3;3;
46839;PMS5003;70678;50.710;5.026;2023-08-17T03:37:07;4;4;
46839;PMS5003;70678;50.710;5.026;2023-08-17T03:39:37;2;2;
46839;PMS5003;70678;50.710;5.026;2023-08-17T03:42:05;6;6;
46839;PMS5003;70678;50.710;5.026;2023-08-17T03:44:33;5;5;
46839;PMS5003;70678;50.710;5.026;2023-08-17T03:47:03;4;4;
46839;PMS5003;70678;50.710;5.026;2023-08-17T03:49:31;4;4;
46839;PMS5003;70678;50.710;5.026;2023-08-17T03:52:01;4;4;
46839;PMS5003;70678;50.710;5.026;2023-08-17T03:54:29;3;3;
46839;PMS5003;70678;50.710;5.026;2023-08-17T03:56:57;6;6;
46839;PMS5003;70678;50.710;5.026;2023-08-17T03:59:24;4;4;
46839;PMS5003;70678;50.710;5.026;2023-08-17T04:01:53;4;4;
46839;PMS5003;70678;50.710;5.026;2023-08-17T04:04:20;4;4;
46839;PMS5003;70678;50.710;5.026;2023-08-17T04:06:48;5;5;
46839;PMS5003;70678;50.710;5.026;2023-08-17T04:09:18;5;5;
46839;PMS5003;70678;50.710;5.026;2023-08-17T04:11:46;4;4;
46839;PMS5003;70678;50.710;5.026;2023-08-17T04:14:16;5;5;
46839;PMS5003;70678;50.710;5.026;2023-08-17T04:16:44;3;3;
46839;PMS5003;70678;50.710;5.026;2023-08-17T04:19:14;4;4;
46839;PMS5003;70678;50.710;5.026;2023-08-17T04:21:42;6;6;
46839;PMS5003;70678;50.710;5.026;2023-08-17T04:24:12;5;5;
46839;PMS5003;70678;50.710;5.026;2023-08-17T04:26:41;1;1;
46839;PMS5003;70678;50.710;5.026;2023-08-17T04:29:09;5;5;
46839;PMS5003;70678;50.710;5.026;2023-08-17T04:31:37;4;4;
46839;PMS5003;70678;50.710;5.026;2023-08-17T04:34:05;3;3;
46839;PMS5003;70678;50.710;5.026;2023-08-17T04:36:33;5;5;
46839;PMS5003;70678;50.710;5.026;2023-08-17T04:39:03;4;4;
46839;PMS5003;70678;50.710;5.026;2023-08-17T04:41:30;3;3;
46839;PMS5003;70678;50.710;5.026;2023-08-17T04:43:58;3;3;
46839;PMS5003;70678;50.710;5.026;2023-08-17T04:46:26;4;4;
46839;PMS5003;70678;50.710;5.026;2023-08-17T04:48:56;3;3;
46839;PMS5003;70678;50.710;5.026;2023-08-17T04:51:23;4;4;
46839;PMS5003;70678;50.710;5.026;2023-08-17T04:53:50;4;4;
46839;PMS5003;70678;50.710;5.026;2023-08-17T04:56:19;2;2;
46839;PMS5003;70678;50.710;5.026;2023-08-17T04:58:46;2;2;
46839;PMS5003;70678;50.710;5.026;2023-08-17T05:01:14;2;2;
46839;PMS5003;70678;50.710;5.026;2023-08-17T05:03:41;3;3;
46839;PMS5003;70678;50.710;5.026;2023-08-17T05:06:11;2;2;
46839;PMS5003;70678;50.710;5.026;2023-08-17T05:08:40;4;4;
46839;PMS5003;70678;50.710;5.026;2023-08-17T05:11:07;3;3;
46839;PMS5003;70678;50.710;5.026;2023-08-17T05:13:37;2;2;
46839;PMS5003;70678;50.710;5.026;2023-08-17T05:16:04;3;3;
46839;PMS5003;70678;50.710;5.026;2023-08-17T05:18:31;3;3;
46839;PMS5003;70678;50.710;5.026;2023-08-17T05:20:59;4;4;
46839;PMS5003;70678;50.710;5.026;2023-08-17T05:23:28;3;3;
46839;PMS5003;70678;50.710;5.026;2023-08-17T05:25:56;4;4;
46839;PMS5003;70678;50.710;5.026;2023-08-17T05:28:24;2;2;
46839;PMS5003;70678;50.710;5.026;2023-08-17T05:30:53;3;3;
46839;PMS5003;70678;50.710;5.026;2023-08-17T05:33:22;6;6;
46839;PMS5003;70678;50.710;5.026;2023-08-17T05:35:53;0;0;
46839;PMS5003;70678;50.710;5.026;2023-08-17T05:38:22;5;5;
46839;PMS5003;70678;50.710;5.026;2023-08-17T05:40:53;4;4;
46839;PMS5003;70678;50.710;5.026;2023-08-17T05:43:21;3;3;
46839;PMS5003;70678;50.710;5.026;2023-08-17T05:45:50;4;4;
46839;PMS5003;70678;50.710;5.026;2023-08-17T05:48:18;1;1;
46839;PMS5003;70678;50.710;5.026;2023-08-17T05:50:47;5;5;
46839;PMS5003;70678;50.710;5.026;2023-08-17T05:53:15;2;2;
46839;PMS5003;70678;50.710;5.026;2023-08-17T05:55:45;5;5;
46839;PMS5003;70678;50.710;5.026;2023-08-17T05:58:13;5;5;
46839;PMS5003;70678;50.710;5.026;2023-08-17T06:00:43;3;3;
46839;PMS5003;70678;50.710;5.026;2023-08-17T06:03:11;3;3;
46839;PMS5003;70678;50.710;5.026;2023-08-17T06:05:41;0;0;
46839;PMS5003;70678;50.710;5.026;2023-08-17T06:08:08;3;3;
46839;PMS5003;70678;50.710;5.026;2023-08-17T06:10:36;2;2;
46839;PMS5003;70678;50.710;5.026;2023-08-17T06:13:05;5;5;
46839;PMS5003;70678;50.710;5.026;2023-08-17T06:15:33;3;3;
46839;PMS5003;70678;50.710;5.026;2023-08-17T06:18:00;4;4;
46839;PMS5003;70678;50.710;5.026;2023-08-17T06:20:27;3;3;
46839;PMS5003;70678;50.710;5.026;2023-08-17T06:22:54;3;3;
46839;PMS5003;70678;50.710;5.026;2023-08-17T06:25:22;5;5;
46839;PMS5003;70678;50.710;5.026;2023-08-17T06:27:51;3;3;
46839;PMS5003;70678;50.710;5.026;2023-08-17T06:30:19;5;5;
46839;PMS5003;70678;50.710;5.026;2023-08-17T06:32:47;3;3;
46839;PMS5003;70678;50.710;5.026;2023-08-17T06:35:16;5;5;
46839;PMS5003;70678;50.710;5.026;2023-08-17T06:37:44;4;4;
46839;PMS5003;70678;50.710;5.026;2023-08-17T06:40:12;4;4;
46839;PMS5003;70678;50.710;5.026;2023-08-17T06:42:41;5;5;
46839;PMS5003;70678;50.710;5.026;2023-08-17T06:45:08;5;5;
46839;PMS5003;70678;50.710;5.026;2023-08-17T06:47:36;3;3;
46839;PMS5003;70678;50.710;5.026;2023-08-17T06:50:06;3;3;
46839;PMS5003;70678;50.710;5.026;2023-08-17T06:52:35;3;3;
46839;PMS5003;70678;50.710;5.026;2023-08-17T06:55:02;4;4;
46839;PMS5003;70678;50.710;5.026;2023-08-17T06:57:31;6;6;
46839;PMS5003;70678;50.710;5.026;2023-08-17T06:59:58;4;4;
46839;PMS5003;70678;50.710;5.026;2023-08-17T07:02:28;6;6;
46839;PMS5003;70678;50.710;5.026;2023-08-17T07:04:55;2;2;
46839;PMS5003;70678;50.710;5.026;2023-08-17T07:07:25;5;5;
46839;PMS5003;70678;50.710;5.026;2023-08-17T07:09:52;2;2;
46839;PMS5003;70678;50.710;5.026;2023-08-17T07:12:20;8;8;
46839;PMS5003;70678;50.710;5.026;2023-08-17T07:14:49;5;5;
46839;PMS5003;70678;50.710;5.026;2023-08-17T07:17:16;5;5;
46839;PMS5003;70678;50.710;5.026;2023-08-17T07:19:44;4;4;
46839;PMS5003;70678;50.710;5.026;2023-08-17T07:22:14;2;2;
46839;PMS5003;70678;50.710;5.026;2023-08-17T07:24:42;3;3;
46839;PMS5003;70678;50.710;5.026;2023-08-17T07:27:11;3;3;
46839;PMS5003;70678;50.710;5.026;2023-08-17T07:29:39;5;5;
46839;PMS5003;70678;50.710;5.026;2023-08-17T07:32:09;5;5;
46839;PMS5003;70678;50.710;5.026;2023-08-17T07:34:37;5;5;
46839;PMS5003;70678;50.710;5.026;2023-08-17T07:37:06;3;3;
46839;PMS5003;70678;50.710;5.026;2023-08-17T07:39:34;7;7;
46839;PMS5003;70678;50.710;5.026;2023-08-17T07:42:02;5;5;
46839;PMS5003;70678;50.710;5.026;2023-08-17T07:44:33;4;4;
46839;PMS5003;70678;50.710;5.026;2023-08-17T07:47:00;5;5;
46839;PMS5003;70678;50.710;5.026;2023-08-17T07:49:28;6;6;
46839;PMS5003;70678;50.710;5.026;2023-08-17T07:51:58;3;3;
46839;PMS5003;70678;50.710;5.026;2023-08-17T07:54:26;3;3;
46839;PMS5003;70678;50.710;5.026;2023-08-17T07:56:56;3;3;
46839;PMS5003;70678;50.710;5.026;2023-08-17T07:59:23;5;5;
46839;PMS5003;70678;50.710;5.026;2023-08-17T08:01:51;5;5;
46839;PMS5003;70678;50.710;5.026;2023-08-17T08:04:20;3;3;
46839;PMS5003;70678;50.710;5.026;2023-08-17T08:06:48;5;5;
46839;PMS5003;70678;50.710;5.026;2023-08-17T08:09:16;5;5;
46839;PMS5003;70678;50.710;5.026;2023-08-17T08:11:45;4;4;
46839;PMS5003;70678;50.710;5.026;2023-08-17T08:14:13;3;3;
46839;PMS5003;70678;50.710;5.026;2023-08-17T08:16:41;6;6;
46839;PMS5003;70678;50.710;5.026;2023-08-17T08:19:10;5;5;
46839;PMS5003;70678;50.710;5.026;2023-08-17T08:21:38;4;4;
46839;PMS5003;70678;50.710;5.026;2023-08-17T08:24:08;6;6;
46839;PMS5003;70678;50.710;5.026;2023-08-17T08:26:36;4;4;
46839;PMS5003;70678;50.710;5.026;2023-08-17T08:29:03;4;4;
46839;PMS5003;70678;50.710;5.026;2023-08-17T08:31:31;6;6;
46839;PMS5003;70678;50.710;5.026;2023-08-17T08:33:59;5;5;
46839;PMS5003;70678;50.710;5.026;2023-08-17T08:36:28;6;6;
46839;PMS5003;70678;50.710;5.026;2023-08-17T08:38:56;5;5;
46839;PMS5003;70678;50.710;5.026;2023-08-17T08:41:25;4;4;
46839;PMS5003;70678;50.710;5.026;2023-08-17T08:43:54;4;4;
46839;PMS5003;70678;50.710;5.026;2023-08-17T08:46:23;3;3;
46839;PMS5003;70678;50.710;5.026;2023-08-17T08:48:54;3;3;
46839;PMS5003;70678;50.710;5.026;2023-08-17T08:51:23;5;5;
46839;PMS5003;70678;50.710;5.026;2023-08-17T08:53:57;6;6;
46839;PMS5003;70678;50.710;5.026;2023-08-17T08:56:28;5;5;
46839;PMS5003;70678;50.710;5.026;2023-08-17T08:59:01;6;6;
46839;PMS5003;70678;50.710;5.026;2023-08-17T09:01:30;3;3;
46839;PMS5003;70678;50.710;5.026;2023-08-17T09:04:00;6;6;
46839;PMS5003;70678;50.710;5.026;2023-08-17T09:06:28;3;3;
46839;PMS5003;70678;50.710;5.026;2023-08-17T09:08:59;3;3;
46839;PMS5003;70678;50.710;5.026;2023-08-17T09:11:31;5;5;
46839;PMS5003;70678;50.710;5.026;2023-08-17T09:13:58;4;4;
46839;PMS5003;70678;50.710;5.026;2023-08-17T09:16:28;7;7;
46839;PMS5003;70678;50.710;5.026;2023-08-17T09:18:55;6;6;
46839;PMS5003;70678;50.710;5.026;2023-08-17T09:21:23;5;5;
46839;PMS5003;70678;50.710;5.026;2023-08-17T09:23:51;7;7;
46839;PMS5003;70678;50.710;5.026;2023-08-17T09:26:19;3;3;
46839;PMS5003;70678;50.710;5.026;2023-08-17T09:28:46;5;5;
46839;PMS5003;70678;50.710;5.026;2023-08-17T09:31:15;3;3;
46839;PMS5003;70678;50.710;5.026;2023-08-17T09:33:43;6;6;
46839;PMS5003;70678;50.710;5.026;2023-08-17T09:36:20;5;5;
46839;PMS5003;70678;50.710;5.026;2023-08-17T09:38:48;3;3;
46839;PMS5003;70678;50.710;5.026;2023-08-17T09:41:16;6;6;
46839;PMS5003;70678;50.710;5.026;2023-08-17T09:43:44;4;4;
46839;PMS5003;70678;50.710;5.026;2023-08-17T09:46:13;3;3;
46839;PMS5003;70678;50.710;5.026;2023-08-17T09:48:43;3;3;
46839;PMS5003;70678;50.710;5.026;2023-08-17T09:51:14;6;6;
46839;PMS5003;70678;50.710;5.026;2023-08-17T09:53:41;4;4;
46839;PMS5003;70678;50.710;5.026;2023-08-17T09:56:09;7;7;
46839;PMS5003;70678;50.710;5.026;2023-08-17T09:58:40;2;2;
46839;PMS5003;70678;50.710;5.026;2023-08-17T10:01:07;7;7;
46839;PMS5003;70678;50.710;5.026;2023-08-17T10:03:36;5;5;
46839;PMS5003;70678;50.710;5.026;2023-08-17T10:06:09;5;5;
46839;PMS5003;70678;50.710;5.026;2023-08-17T10:08:41;4;4;
46839;PMS5003;70678;50.710;5.026;2023-08-17T10:11:10;4;4;
46839;PMS5003;70678;50.710;5.026;2023-08-17T10:13:39;6;6;
46839;PMS5003;70678;50.710;5.026;2023-08-17T10:16:16;5;5;
46839;PMS5003;70678;50.710;5.026;2023-08-17T10:18:50;7;7;
46839;PMS5003;70678;50.710;5.026;2023-08-17T10:21:21;2;2;
46839;PMS5003;70678;50.710;5.026;2023-08-17T10:23:53;6;6;
46839;PMS5003;70678;50.710;5.026;2023-08-17T10:26:21;7;7;
46839;PMS5003;70678;50.710;5.026;2023-08-17T10:28:51;5;5;
46839;PMS5003;70678;50.710;5.026;2023-08-17T10:31:19;8;8;
46839;PMS5003;70678;50.710;5.026;2023-08-17T10:33:48;6;6;
46839;PMS5003;70678;50.710;5.026;2023-08-17T10:36:16;6;6;
46839;PMS5003;70678;50.710;5.026;2023-08-17T10:38:45;5;5;
46839;PMS5003;70678;50.710;5.026;2023-08-17T10:41:14;5;5;
46839;PMS5003;70678;50.710;5.026;2023-08-17T10:43:56;7;7;
46839;PMS5003;70678;50.710;5.026;2023-08-17T10:46:32;7;7;
46839;PMS5003;70678;50.710;5.026;2023-08-17T10:49:02;5;5;
46839;PMS5003;70678;50.710;5.026;2023-08-17T10:51:32;9;9;
46839;PMS5003;70678;50.710;5.026;2023-08-17T10:54:01;5;5;
46839;PMS5003;70678;50.710;5.026;2023-08-17T10:56:30;2;2;
46839;PMS5003;70678;50.710;5.026;2023-08-17T10:58:59;9;9;
46839;PMS5003;70678;50.710;5.026;2023-08-17T11:01:31;6;6;
46839;PMS5003;70678;50.710;5.026;2023-08-17T11:04:16;9;9;
46839;PMS5003;70678;50.710;5.026;2023-08-17T11:06:45;4;4;
46839;PMS5003;70678;50.710;5.026;2023-08-17T11:09:18;3;3;
46839;PMS5003;70678;50.710;5.026;2023-08-17T11:11:52;5;5;
46839;PMS5003;70678;50.710;5.026;2023-08-17T11:14:21;7;7;
46839;PMS5003;70678;50.710;5.026;2023-08-17T11:16:50;6;6;
46839;PMS5003;70678;50.710;5.026;2023-08-17T11:19:20;7;7;
46839;PMS5003;70678;50.710;5.026;2023-08-17T11:21:48;7;7;
46839;PMS5003;70678;50.710;5.026;2023-08-17T11:24:18;5;5;
46839;PMS5003;70678;50.710;5.026;2023-08-17T11:26:46;9;9;
46839;PMS5003;70678;50.710;5.026;2023-08-17T11:29:15;5;5;
46839;PMS5003;70678;50.710;5.026;2023-08-17T11:31:42;7;7;
46839;PMS5003;70678;50.710;5.026;2023-08-17T11:34:14;7;7;
46839;PMS5003;70678;50.710;5.026;2023-08-17T11:36:42;7;7;
46839;PMS5003;70678;50.710;5.026;2023-08-17T11:39:11;11;11;
46839;PMS5003;70678;50.710;5.026;2023-08-17T11:41:38;8;8;
46839;PMS5003;70678;50.710;5.026;2023-08-17T11:44:06;8;8;
46839;PMS5003;70678;50.710;5.026;2023-08-17T11:46:36;9;9;
46839;PMS5003;70678;50.710;5.026;2023-08-17T11:49:04;10;10;
46839;PMS5003;70678;50.710;5.026;2023-08-17T11:51:33;9;9;
46839;PMS5003;70678;50.710;5.026;2023-08-17T11:54:01;8;8;
46839;PMS5003;70678;50.710;5.026;2023-08-17T11:56:31;8;8;
46839;PMS5003;70678;50.710;5.026;2023-08-17T11:59:07;6;6;
46839;PMS5003;70678;50.710;5.026;2023-08-17T12:01:35;6;6;
46839;PMS5003;70678;50.710;5.026;2023-08-17T12:04:03;8;8;
46839;PMS5003;70678;50.710;5.026;2023-08-17T12:06:31;8;8;
46839;PMS5003;70678;50.710;5.026;2023-08-17T12:08:59;8;8;
46839;PMS5003;70678;50.710;5.026;2023-08-17T12:11:28;7;7;
46839;PMS5003;70678;50.710;5.026;2023-08-17T12:13:56;16;16;
46839;PMS5003;70678;50.710;5.026;2023-08-17T12:16:26;8;8;
46839;PMS5003;70678;50.710;5.026;2023-08-17T12:18:54;9;9;
46839;PMS5003;70678;50.710;5.026;2023-08-17T12:21:23;7;7;
46839;PMS5003;70678;50.710;5.026;2023-08-17T12:23:52;10;10;
46839;PMS5003;70678;50.710;5.026;2023-08-17T12:26:22;17;17;
46839;PMS5003;70678;50.710;5.026;2023-08-17T12:28:49;10;10;
46839;PMS5003;70678;50.710;5.026;2023-08-17T12:31:20;8;8;
46839;PMS5003;70678;50.710;5.026;2023-08-17T12:33:48;7;7;
46839;PMS5003;70678;50.710;5.026;2023-08-17T12:36:17;7;7;
46839;PMS5003;70678;50.710;5.026;2023-08-17T12:38:46;9;9;
46839;PMS5003;70678;50.710;5.026;2023-08-17T12:41:14;8;8;
46839;PMS5003;70678;50.710;5.026;2023-08-17T12:43:44;7;7;
46839;PMS5003;70678;50.710;5.026;2023-08-17T12:46:11;9;9;
46839;PMS5003;70678;50.710;5.026;2023-08-17T12:48:39;10;10;
46839;PMS5003;70678;50.710;5.026;2023-08-17T12:51:08;12;12;
46839;PMS5003;70678;50.710;5.026;2023-08-17T12:53:36;6;6;
46839;PMS5003;70678;50.710;5.026;2023-08-17T12:56:03;8;8;
46839;PMS5003;70678;50.710;5.026;2023-08-17T12:58:32;8;8;
46839;PMS5003;70678;50.710;5.026;2023-08-17T13:00:59;9;9;
46839;PMS5003;70678;50.710;5.026;2023-08-17T13:03:28;6;6;
46839;PMS5003;70678;50.710;5.026;2023-08-17T13:05:56;7;7;
46839;PMS5003;70678;50.710;5.026;2023-08-17T13:08:24;10;10;
46839;PMS5003;70678;50.710;5.026;2023-08-17T13:10:53;9;9;
46839;PMS5003;70678;50.710;5.026;2023-08-17T13:13:21;9;9;
46839;PMS5003;70678;50.710;5.026;2023-08-17T13:15:49;8;8;
46839;PMS5003;70678;50.710;5.026;2023-08-17T13:18:18;6;6;
46839;PMS5003;70678;50.710;5.026;2023-08-17T13:20:45;11;11;
46839;PMS5003;70678;50.710;5.026;2023-08-17T13:23:14;10;10;
46839;PMS5003;70678;50.710;5.026;2023-08-17T13:25:42;9;9;
46839;PMS5003;70678;50.710;5.026;2023-08-17T13:28:12;7;7;
46839;PMS5003;70678;50.710;5.026;2023-08-17T13:30:39;9;9;
46839;PMS5003;70678;50.710;5.026;2023-08-17T13:33:07;8;8;
46839;PMS5003;70678;50.710;5.026;2023-08-17T13:35:35;14;14;
46839;PMS5003;70678;50.710;5.026;2023-08-17T13:38:03;12;12;
46839;PMS5003;70678;50.710;5.026;2023-08-17T13:40:33;9;9;
46839;PMS5003;70678;50.710;5.026;2023-08-17T13:43:01;10;10;
46839;PMS5003;70678;50.710;5.026;2023-08-17T13:45:29;13;13;
46839;PMS5003;70678;50.710;5.026;2023-08-17T13:47:58;4;4;
46839;PMS5003;70678;50.710;5.026;2023-08-17T13:50:26;12;12;
46839;PMS5003;70678;50.710;5.026;2023-08-17T13:52:56;12;12;
46839;PMS5003;70678;50.710;5.026;2023-08-17T13:55:24;12;12;
46839;PMS5003;70678;50.710;5.026;2023-08-17T13:57:52;12;12;
46839;PMS5003;70678;50.710;5.026;2023-08-17T14:00:19;10;10;
46839;PMS5003;70678;50.710;5.026;2023-08-17T14:02:47;9;9;
46839;PMS5003;70678;50.710;5.026;2023-08-17T14:05:15;13;13;
46839;PMS5003;70678;50.710;5.026;2023-08-17T14:07:44;12;12;
46839;PMS5003;70678;50.710;5.026;2023-08-17T14:10:12;12;12;
46839;PMS5003;70678;50.710;5.026;2023-08-17T14:12:41;9;9;
46839;PMS5003;70678;50.710;5.026;2023-08-17T14:15:09;10;10;
46839;PMS5003;70678;50.710;5.026;2023-08-17T14:17:37;12;12;
46839;PMS5003;70678;50.710;5.026;2023-08-17T14:20:05;11;11;
46839;PMS5003;70678;50.710;5.026;2023-08-17T14:22:34;9;9;
46839;PMS5003;70678;50.710;5.026;2023-08-17T14:25:02;15;15;
46839;PMS5003;70678;50.710;5.026;2023-08-17T14:27:34;10;10;
46839;PMS5003;70678;50.710;5.026;2023-08-17T14:30:04;13;13;
46839;PMS5003;70678;50.710;5.026;2023-08-17T14:32:32;12;12;
46839;PMS5003;70678;50.710;5.026;2023-08-17T14:34:59;13;13;
46839;PMS5003;70678;50.710;5.026;2023-08-17T14:37:29;12;12;
46839;PMS5003;70678;50.710;5.026;2023-08-17T14:39:56;15;15;
46839;PMS5003;70678;50.710;5.026;2023-08-17T14:42:25;8;8;
46839;PMS5003;70678;50.710;5.026;2023-08-17T14:44:53;12;12;
46839;PMS5003;70678;50.710;5.026;2023-08-17T14:47:21;12;12;
46839;PMS5003;70678;50.710;5.026;2023-08-17T14:49:48;17;17;
46839;PMS5003;70678;50.710;5.026;2023-08-17T14:52:16;12;12;
46839;PMS5003;70678;50.710;5.026;2023-08-17T14:54:44;11;11;
46839;PMS5003;70678;50.710;5.026;2023-08-17T14:57:14;13;13;
46839;PMS5003;70678;50.710;5.026;2023-08-17T14:59:41;15;15;
46839;PMS5003;70678;50.710;5.026;2023-08-17T15:02:09;13;13;
46839;PMS5003;70678;50.710;5.026;2023-08-17T15:04:39;11;11;
46839;PMS5003;70678;50.710;5.026;2023-08-17T15:07:07;14;14;
46839;PMS5003;70678;50.710;5.026;2023-08-17T15:09:37;19;19;
46839;PMS5003;70678;50.710;5.026;2023-08-17T15:12:05;15;15;
46839;PMS5003;70678;50.710;5.026;2023-08-17T15:14:33;13;13;
46839;PMS5003;70678;50.710;5.026;2023-08-17T15:17:01;13;13;
46839;PMS5003;70678;50.710;5.026;2023-08-17T15:19:29;15;15;
46839;PMS5003;70678;50.710;5.026;2023-08-17T15:21:57;12;12;
46839;PMS5003;70678;50.710;5.026;2023-08-17T15:24:26;14;14;
46839;PMS5003;70678;50.710;5.026;2023-08-17T15:26:55;13;13;
46839;PMS5003;70678;50.710;5.026;2023-08-17T15:29:22;14;14;
46839;PMS5003;70678;50.710;5.026;2023-08-17T15:31:51;5;5;
46839;PMS5003;70678;50.710;5.026;2023-08-17T15:34:19;15;15;
46839;PMS5003;70678;50.710;5.026;2023-08-17T15:36:48;12;12;
46839;PMS5003;70678;50.710;5.026;2023-08-17T15:39:17;16;13;
46839;PMS5003;70678;50.710;5.026;2023-08-17T15:41:45;14;14;
46839;PMS5003;70678;50.710;5.026;2023-08-17T15:44:14;16;16;
46839;PMS5003;70678;50.710;5.026;2023-08-17T15:46:42;14;14;
46839;PMS5003;70678;50.710;5.026;2023-08-17T15:49:10;19;19;
46839;PMS5003;70678;50.710;5.026;2023-08-17T15:51:38;13;13;
46839;PMS5003;70678;50.710;5.026;2023-08-17T15:54:05;15;15;
46839;PMS5003;70678;50.710;5.026;2023-08-17T15:56:35;10;10;
46839;PMS5003;70678;50.710;5.026;2023-08-17T15:59:03;13;13;
46839;PMS5003;70678;50.710;5.026;2023-08-17T16:01:30;14;14;
46839;PMS5003;70678;50.710;5.026;2023-08-17T16:04:00;10;10;
46839;PMS5003;70678;50.710;5.026;2023-08-17T16:06:28;13;13;
46839;PMS5003;70678;50.710;5.026;2023-08-17T16:08:56;16;16;
46839;PMS5003;70678;50.710;5.026;2023-08-17T16:11:23;18;18;
46839;PMS5003;70678;50.710;5.026;2023-08-17T16:13:51;4;4;
46839;PMS5003;70678;50.710;5.026;2023-08-17T16:16:19;12;12;
46839;PMS5003;70678;50.710;5.026;2023-08-17T16:18:49;17;17;
46839;PMS5003;70678;50.710;5.026;2023-08-17T16:21:17;14;14;
46839;PMS5003;70678;50.710;5.026;2023-08-17T16:23:44;15;15;
46839;PMS5003;70678;50.710;5.026;2023-08-17T16:26:12;13;13;
46839;PMS5003;70678;50.710;5.026;2023-08-17T16:28:40;12;12;
46839;PMS5003;70678;50.710;5.026;2023-08-17T16:31:09;16;16;
46839;PMS5003;70678;50.710;5.026;2023-08-17T16:33:38;17;17;
46839;PMS5003;70678;50.710;5.026;2023-08-17T16:36:07;14;14;
46839;PMS5003;70678;50.710;5.026;2023-08-17T16:38:35;14;14;
46839;PMS5003;70678;50.710;5.026;2023-08-17T16:41:05;14;14;
46839;PMS5003;70678;50.710;5.026;2023-08-17T16:43:33;15;15;
46839;PMS5003;70678;50.710;5.026;2023-08-17T16:46:02;12;12;
46839;PMS5003;70678;50.710;5.026;2023-08-17T16:48:30;15;15;
46839;PMS5003;70678;50.710;5.026;2023-08-17T16:50:58;15;15;
46839;PMS5003;70678;50.710;5.026;2023-08-17T16:53:27;24;24;